Bill Street, United Kingdom
Current Conditions -  °F | °C
As of 5:50 AM on Wednesday 22 Oct 2014 (Local Time) from EGMC Reporting Station
Clear Clear  
Wind Chill: 39°   Ceiling: Unl
Heat Index: 46°   Visibility: 6mi
Dew Point: 36°   Wind: 17mph
Humidity: 66%   Direction: 270°W
Pressure: 30.18"   Gusts: NA
Location:  51.41°N, 0.54°E
Report Text: EGMC 220450Z 27015KT CAVOK 08/02 Q1022
Loading
Personal Weather Stations






























Interactive Weather Map
Tropical Storm Tracking
New forecast layout! Learn more

10-Day Weather Forecast

Advertisements
Track Severe Weather on mobile